Aviation Digital Data Service (ADDS)

Output produced by METARs form (1258 UTC 21 February 2018)
found at http://www.aviationweather.gov/adds/metars/
 
TAF GFLL 201000Z 2012/2118 23010KT 9000 SCT014 
     TEMPO 7000 -HZ FEW016 
     TEMPO 2020/2103 9000 SCT013 
     TEMPO 26003KT 4000 BR SCT011 
     BECMG 2108/2110 23006KT 5000 SCT013